DPS weather

Ngurah Rai (Bali) International Airport
Denpasar-Bali Island, Bali, Indonesia

Public forecast

Using degrees Celsius for public forecast. Weather courtesy of forecast.io.

METAR (pilot weather report)

Retrieved 2019/03/23 22:00 UTC (17 minutes ago):

WADD 232200Z 02004KT 9999 FEW017 25/24 Q1008 NOSIG

TAF (pilot weather forecast)

Forecast is more than 12 hours old.

Retrieved 2019/03/21 00:00 UTC (3 days ago):

TAF WADD 212300Z 2200/2300 29010KT 9999 SCT016 TEMPO 2210/2214 5000 TSRA FEW015CB BKN016 BECMG 2218/2220 VRB05KT